Time;durP1;ratioP1;P1;durP2;ratioP2;P2;SDS_P1;SDS_P2;PMS_P1;PMS_P2;Temp;Humidity;BMP_temperature;BMP_pressure;BME280_temperature;BME280_humidity;BME280_pressure;Samples;Min_cycle;Max_cycle;Signal;HPM_P1;HPM_P2
2022/10/07 00:00:13;;;;;;;18.58;7.75;;;12.10;99.90;;;;;;5052135;28;20033;-64
2022/10/07 00:02:39;;;;;;;14.77;7.43;;;12.10;99.90;;;;;;5051514;28;20036;-65
2022/10/07 00:05:05;;;;;;;14.40;7.20;;;12.00;99.90;;;;;;5051923;28;20025;-64
2022/10/07 00:07:31;;;;;;;18.15;7.82;;;12.00;99.90;;;;;;5051933;28;20036;-69
2022/10/07 00:09:57;;;;;;;15.35;7.18;;;12.10;99.90;;;;;;5051307;28;20029;-65
2022/10/07 00:12:22;;;;;;;20.55;8.10;;;12.10;99.90;;;;;;5052056;28;20071;-66
2022/10/07 00:14:48;;;;;;;23.02;7.63;;;12.10;99.90;;;;;;5049727;28;20029;-63
2022/10/07 00:17:13;;;;;;;16.08;7.75;;;12.00;99.90;;;;;;5051820;28;20064;-65
2022/10/07 00:19:39;;;;;;;15.38;7.18;;;11.90;99.90;;;;;;5050497;28;20473;-64
2022/10/07 00:22:05;;;;;;;15.52;7.13;;;12.00;99.90;;;;;;5049836;28;20525;-63
2022/10/07 00:24:30;;;;;;;14.25;7.28;;;12.00;99.90;;;;;;5051539;28;20062;-64
2022/10/07 00:26:56;;;;;;;15.93;6.80;;;12.10;99.90;;;;;;5051003;28;20025;-64
2022/10/07 00:29:22;;;;;;;14.45;7.53;;;12.10;99.90;;;;;;5051470;28;20057;-63
2022/10/07 00:31:47;;;;;;;14.93;7.47;;;12.10;99.90;;;;;;5048879;28;20029;-65
2022/10/07 00:34:13;;;;;;;12.15;7.10;;;12.20;99.90;;;;;;5051596;28;20044;-66
2022/10/07 00:36:39;;;;;;;13.38;6.75;;;12.20;99.90;;;;;;5050662;28;20465;-66
2022/10/07 00:39:08;;;;;;;11.50;6.68;;;12.20;99.90;;;;;;5051386;28;20056;-64
2022/10/07 00:41:38;;;;;;;13.73;6.93;;;12.20;99.90;;;;;;5050992;28;20028;-68
2022/10/07 00:44:30;;;;;;;13.02;6.88;;;12.20;99.90;;;;;;5051592;28;20124;-64
2022/10/07 00:47:19;;;;;;;12.85;6.63;;;12.30;99.90;;;;;;5050500;28;20056;-66
2022/10/07 00:49:50;;;;;;;19.45;7.03;;;12.20;99.90;;;;;;5046723;28;20049;-65
2022/10/07 00:52:19;;;;;;;13.55;6.93;;;12.20;99.90;;;;;;5051182;28;20044;-63
2022/10/07 00:54:46;;;;;;;16.13;7.25;;;12.20;99.90;;;;;;5050262;28;20512;-63
2022/10/07 00:57:12;;;;;;;13.43;7.32;;;12.20;99.90;;;;;;5050896;28;20083;-64
2022/10/07 00:59:38;;;;;;;19.30;7.07;;;12.10;99.90;;;;;;5049835;28;20036;-68
2022/10/07 01:02:04;;;;;;;17.75;7.00;;;12.10;99.90;;;;;;5050807;28;20029;-66
2022/10/07 01:04:30;;;;;;;17.25;7.30;;;12.00;99.90;;;;;;5050547;28;20028;-64
2022/10/07 01:06:56;;;;;;;13.23;6.93;;;12.00;99.90;;;;;;5049933;28;20025;-65
2022/10/07 01:09:22;;;;;;;12.25;7.50;;;12.00;99.90;;;;;;5050736;28;20091;-64
2022/10/07 01:12:09;;;;;;;18.10;7.90;;;12.00;99.90;;;;;;5049332;28;20025;-66
2022/10/07 01:14:47;;;;;;;13.48;7.00;;;11.90;99.90;;;;;;5050484;28;20063;-69
2022/10/07 01:17:27;;;;;;;18.40;7.85;;;11.80;99.90;;;;;;5050477;28;20044;-66
2022/10/07 01:20:14;;;;;;;16.60;7.05;;;11.80;99.90;;;;;;5048647;28;20044;-64
2022/10/07 01:22:45;;;;;;;13.00;7.07;;;11.80;99.90;;;;;;5049715;28;20083;-68
2022/10/07 01:25:42;;;;;;;17.65;6.88;;;11.80;99.90;;;;;;5050310;28;20104;-66
2022/10/07 01:28:13;;;;;;;17.17;7.25;;;11.90;99.90;;;;;;5050372;28;20028;-68
2022/10/07 01:30:43;;;;;;;18.08;7.00;;;11.90;99.90;;;;;;5049880;28;20036;-69
2022/10/07 01:33:15;;;;;;;15.82;6.88;;;11.90;99.90;;;;;;5050340;28;20422;-66
2022/10/07 01:35:44;;;;;;;14.40;7.18;;;12.00;99.90;;;;;;5049556;28;20154;-66
2022/10/07 01:38:12;;;;;;;12.95;6.95;;;12.00;99.90;;;;;;5050220;28;20067;-66
2022/10/07 01:40:54;;;;;;;13.00;6.60;;;12.00;99.90;;;;;;5049845;28;20052;-69
2022/10/07 01:43:21;;;;;;;21.48;8.13;;;12.00;99.90;;;;;;5049666;28;20025;-65
2022/10/07 01:45:47;;;;;;;13.00;6.75;;;12.00;99.90;;;;;;5049534;28;20037;-66
2022/10/07 01:48:14;;;;;;;19.52;7.40;;;12.10;99.90;;;;;;5050007;28;20074;-65
2022/10/07 01:50:40;;;;;;;18.00;6.60;;;12.10;99.90;;;;;;5049179;28;20393;-67
2022/10/07 01:53:11;;;;;;;13.88;6.90;;;12.10;99.90;;;;;;5049613;28;20044;-64
2022/10/07 01:55:50;;;;;;;14.20;6.82;;;12.00;99.90;;;;;;5049956;28;20025;-66
2022/10/07 01:58:34;;;;;;;16.55;6.45;;;11.90;99.90;;;;;;5049937;28;20048;-66
2022/10/07 02:01:26;;;;;;;13.32;6.38;;;12.00;99.90;;;;;;5048960;28;20036;-63
2022/10/07 02:04:03;;;;;;;18.42;6.90;;;11.90;99.90;;;;;;5048696;28;20507;-66
2022/10/07 02:06:32;;;;;;;11.35;6.38;;;11.90;99.90;;;;;;5049704;28;20032;-63
2022/10/07 02:09:01;;;;;;;10.45;5.82;;;11.90;99.90;;;;;;5048879;28;20137;-66
2022/10/07 02:11:31;;;;;;;16.30;7.10;;;12.00;99.90;;;;;;5049033;28;20491;-67
2022/10/07 02:14:18;;;;;;;11.82;6.47;;;12.10;99.90;;;;;;5048791;28;20355;-66
2022/10/07 02:16:53;;;;;;;16.33;7.75;;;12.00;99.90;;;;;;5048405;28;20037;-63
2022/10/07 02:19:30;;;;;;;20.27;7.45;;;12.10;99.90;;;;;;5049330;28;20132;-64
2022/10/07 02:21:57;;;;;;;12.43;6.32;;;12.00;99.90;;;;;;5048548;28;20139;-64
2022/10/07 02:24:27;;;;;;;14.05;7.20;;;12.00;99.90;;;;;;5049550;28;20029;-66
2022/10/07 02:26:55;;;;;;;18.42;6.60;;;12.00;99.90;;;;;;5048337;28;20466;-67
2022/10/07 02:29:23;;;;;;;12.82;5.70;;;12.10;99.90;;;;;;5049340;28;20044;-66
2022/10/07 02:31:51;;;;;;;12.25;5.78;;;12.10;99.90;;;;;;5048645;28;20484;-64
2022/10/07 02:34:20;;;;;;;14.70;6.43;;;12.10;99.90;;;;;;5049141;28;20027;-65
2022/10/07 02:36:59;;;;;;;14.98;6.22;;;12.10;99.90;;;;;;5048401;28;20033;-65
2022/10/07 02:39:26;;;;;;;10.35;5.53;;;12.00;99.90;;;;;;5049405;28;20052;-64
2022/10/07 02:42:08;;;;;;;12.10;5.93;;;11.90;99.90;;;;;;5048201;28;20037;-64
2022/10/07 02:44:40;;;;;;;15.23;6.20;;;11.90;99.90;;;;;;5047851;28;20378;-66
2022/10/07 02:47:13;;;;;;;11.15;5.63;;;11.80;99.90;;;;;;5048324;28;20075;-66
2022/10/07 02:49:41;;;;;;;15.43;6.60;;;11.90;99.90;;;;;;5048983;28;20036;-65
2022/10/07 02:52:11;;;;;;;11.00;6.00;;;11.90;99.90;;;;;;5047306;28;20103;-66
2022/10/07 02:54:45;;;;;;;12.85;5.93;;;11.90;99.90;;;;;;5049175;28;20083;-65
2022/10/07 02:57:15;;;;;;;16.73;6.22;;;11.90;99.90;;;;;;5049524;28;20083;-62
2022/10/07 02:59:41;;;;;;;19.15;6.10;;;11.90;99.90;;;;;;5049076;28;20025;-66
2022/10/07 03:02:14;;;;;;;12.18;6.32;;;12.00;99.90;;;;;;5048690;28;20028;-66
2022/10/07 03:04:39;;;;;;;13.50;6.50;;;12.00;99.90;;;;;;5048895;28;20445;-63
2022/10/07 03:07:05;;;;;;;13.23;6.47;;;12.00;99.90;;;;;;5048474;28;20124;-65
2022/10/07 03:09:31;;;;;;;17.40;6.45;;;12.10;99.90;;;;;;5049007;28;20420;-67
2022/10/07 03:11:56;;;;;;;12.50;6.05;;;12.10;99.90;;;;;;5048012;28;20017;-64
2022/10/07 03:14:23;;;;;;;16.60;6.90;;;12.10;99.90;;;;;;5048985;28;20067;-65
2022/10/07 03:16:52;;;;;;;15.07;6.18;;;12.20;99.90;;;;;;5048120;28;20029;-64
2022/10/07 03:19:18;;;;;;;13.85;6.22;;;12.20;99.90;;;;;;5047938;28;20086;-64
2022/10/07 03:21:43;;;;;;;14.13;5.80;;;12.20;99.90;;;;;;5048462;28;20041;-68
2022/10/07 03:24:10;;;;;;;11.23;5.90;;;12.30;99.90;;;;;;5048606;28;20029;-64
2022/10/07 03:26:35;;;;;;;12.45;5.35;;;12.20;99.90;;;;;;5050229;28;20420;-64
2022/10/07 03:29:01;;;;;;;11.20;5.38;;;12.10;99.90;;;;;;5051786;28;20041;-65
2022/10/07 03:31:27;;;;;;;11.43;5.93;;;12.10;99.90;;;;;;5051322;28;20033;-65
2022/10/07 03:33:55;;;;;;;16.08;6.55;;;12.00;99.90;;;;;;5050450;28;20033;-67
2022/10/07 03:36:21;;;;;;;15.07;6.18;;;12.10;99.90;;;;;;5052578;28;20025;-64
2022/10/07 03:38:48;;;;;;;12.15;5.43;;;12.10;99.90;;;;;;5051531;28;20083;-69
2022/10/07 03:41:14;;;;;;;12.52;6.22;;;12.00;99.90;;;;;;5052561;28;20037;-66
2022/10/07 03:43:39;;;;;;;13.50;6.20;;;12.10;99.90;;;;;;5052502;28;20025;-64
2022/10/07 03:46:05;;;;;;;14.43;6.30;;;12.10;99.90;;;;;;5051582;28;20047;-65
2022/10/07 03:48:31;;;;;;;13.25;5.90;;;12.10;99.90;;;;;;5052339;28;20115;-66
2022/10/07 03:50:57;;;;;;;15.48;6.78;;;12.10;99.90;;;;;;5051131;28;20029;-65
2022/10/07 03:53:25;;;;;;;17.80;7.30;;;12.20;99.90;;;;;;5052169;28;20519;-64
2022/10/07 03:55:50;;;;;;;13.55;6.13;;;12.20;99.90;;;;;;5051212;28;20029;-67
2022/10/07 03:58:16;;;;;;;12.40;6.57;;;12.10;99.90;;;;;;5052017;28;20070;-64
2022/10/07 04:00:42;;;;;;;11.65;6.28;;;12.20;99.90;;;;;;5052051;28;20523;-63
2022/10/07 04:03:08;;;;;;;17.58;6.80;;;12.20;99.90;;;;;;5051263;28;20028;-67
2022/10/07 04:05:35;;;;;;;16.02;7.20;;;12.20;99.90;;;;;;5051710;28;20503;-66
2022/10/07 04:08:01;;;;;;;13.32;7.05;;;12.20;99.90;;;;;;5050712;28;20033;-63
2022/10/07 04:10:27;;;;;;;16.50;6.93;;;12.30;99.90;;;;;;5051730;28;20094;-66
2022/10/07 04:12:53;;;;;;;18.08;6.72;;;12.20;99.90;;;;;;5050828;28;20767;-66
2022/10/07 04:15:19;;;;;;;10.52;6.03;;;12.20;99.90;;;;;;5051778;28;20083;-64
2022/10/07 04:17:46;;;;;;;12.70;6.15;;;12.20;99.90;;;;;;5051798;28;20055;-65
2022/10/07 04:20:13;;;;;;;12.00;6.05;;;12.20;99.90;;;;;;5050392;28;20493;-66
2022/10/07 04:22:39;;;;;;;9.70;6.10;;;12.10;99.90;;;;;;5051506;28;20029;-64
2022/10/07 04:27:55;;;;;;;15.82;6.25;;;12.10;99.90;;;;;;5050674;28;20032;-68
2022/10/07 04:30:22;;;;;;;10.82;5.90;;;12.10;99.90;;;;;;5051657;28;20029;-64
2022/10/07 04:32:49;;;;;;;19.20;6.38;;;12.20;99.90;;;;;;5051210;28;20029;-69
2022/10/07 04:35:15;;;;;;;18.00;6.35;;;12.20;99.90;;;;;;5051296;28;20017;-64
2022/10/07 04:37:42;;;;;;;12.85;6.40;;;12.20;99.90;;;;;;5048891;28;20120;-66
2022/10/07 04:40:09;;;;;;;14.85;5.95;;;12.20;99.90;;;;;;5050260;28;20132;-65
2022/10/07 04:45:19;;;;;;;14.52;6.03;;;12.20;99.90;;;;;;5051106;28;20032;-64
2022/10/07 04:47:45;;;;;;;13.23;5.75;;;12.20;99.90;;;;;;5051160;28;20376;-64
2022/10/07 04:50:11;;;;;;;14.13;5.57;;;12.20;99.90;;;;;;5050397;28;20041;-64
2022/10/07 04:52:41;;;;;;;11.13;5.85;;;12.20;99.90;;;;;;5051147;28;20033;-64
2022/10/07 04:55:08;;;;;;;12.32;5.88;;;12.20;99.90;;;;;;5050328;28;20171;-66
2022/10/07 04:57:34;;;;;;;17.83;6.97;;;12.20;99.90;;;;;;5051310;28;20366;-66
2022/10/07 05:00:00;;;;;;;13.40;6.30;;;12.20;99.90;;;;;;5050088;28;20043;-64
2022/10/07 05:02:26;;;;;;;15.00;8.00;;;12.20;99.90;;;;;;5050875;28;20037;-65
2022/10/07 05:04:52;;;;;;;17.13;8.82;;;12.20;99.90;;;;;;5050172;28;20347;-69
2022/10/07 05:07:18;;;;;;;11.35;6.32;;;12.20;99.90;;;;;;5050733;28;20032;-66
2022/10/07 05:09:44;;;;;;;13.07;5.82;;;12.20;99.90;;;;;;5050750;28;20037;-66
2022/10/07 05:12:10;;;;;;;15.80;6.57;;;12.10;99.90;;;;;;5050063;28;20021;-65
2022/10/07 05:14:36;;;;;;;14.93;6.95;;;12.10;99.90;;;;;;5050712;28;20075;-65
2022/10/07 05:17:03;;;;;;;19.05;7.05;;;12.10;99.90;;;;;;5049491;28;20032;-66
2022/10/07 05:19:29;;;;;;;11.82;5.85;;;12.10;99.90;;;;;;5032624;28;20037;-64
2022/10/07 05:21:55;;;;;;;12.15;6.40;;;12.10;99.90;;;;;;5049370;28;20025;-65
2022/10/07 05:24:20;;;;;;;11.60;6.50;;;12.10;99.90;;;;;;5050320;28;20033;-65
2022/10/07 05:26:46;;;;;;;12.00;6.68;;;12.10;99.90;;;;;;5049294;28;20067;-65
2022/10/07 05:29:12;;;;;;;14.27;7.15;;;12.10;99.90;;;;;;5049328;28;20598;-64
2022/10/07 05:31:38;;;;;;;14.77;6.85;;;12.10;99.90;;;;;;5050032;28;20033;-64
2022/10/07 05:34:03;;;;;;;13.95;7.32;;;12.10;99.90;;;;;;5049348;28;20473;-64
2022/10/07 05:36:29;;;;;;;14.10;6.38;;;12.10;99.90;;;;;;5050275;28;20127;-65
2022/10/07 05:38:58;;;;;;;13.13;7.03;;;12.10;99.90;;;;;;5049416;28;20477;-68
2022/10/07 05:41:26;;;;;;;16.17;7.57;;;12.10;99.90;;;;;;5050216;28;20029;-66
2022/10/07 05:43:52;;;;;;;11.77;7.55;;;12.10;99.90;;;;;;5049815;28;20397;-69
2022/10/07 05:46:19;;;;;;;17.35;8.27;;;12.10;99.90;;;;;;5048659;28;20480;-67
2022/10/07 05:48:50;;;;;;;17.25;8.32;;;12.10;99.90;;;;;;5049781;28;20070;-65
2022/10/07 05:51:17;;;;;;;13.00;7.95;;;12.20;99.90;;;;;;5048185;28;20618;-64
2022/10/07 05:53:45;;;;;;;18.00;8.48;;;12.20;99.90;;;;;;5049932;28;20032;-66
2022/10/07 05:56:20;;;;;;;15.55;8.30;;;12.20;99.90;;;;;;5049116;28;20024;-66
2022/10/07 05:58:46;;;;;;;15.27;7.20;;;12.20;99.90;;;;;;5049972;28;20112;-64
2022/10/07 06:01:20;;;;;;;25.30;7.55;;;12.20;99.90;;;;;;5049131;28;20029;-64
2022/10/07 06:03:51;;;;;;;12.25;6.57;;;12.20;99.90;;;;;;5049886;28;20726;-65
2022/10/07 06:06:16;;;;;;;17.65;7.30;;;12.20;99.90;;;;;;5048926;28;20040;-65
2022/10/07 06:08:42;;;;;;;16.58;8.05;;;12.20;99.90;;;;;;5049569;28;20048;-65
2022/10/07 06:13:56;;;;;;;19.85;8.40;;;12.20;99.90;;;;;;5049258;28;20028;-68
2022/10/07 06:16:23;;;;;;;11.73;8.10;;;12.30;99.90;;;;;;5049102;28;20029;-64
2022/10/07 06:18:52;;;;;;;18.20;7.20;;;12.30;99.90;;;;;;5049494;28;20079;-65
2022/10/07 06:21:26;;;;;;;16.05;7.15;;;12.30;99.90;;;;;;5048930;28;20509;-67
2022/10/07 06:23:53;;;;;;;14.68;7.50;;;12.40;99.90;;;;;;5049300;28;20063;-65
2022/10/07 06:26:20;;;;;;;13.13;6.90;;;12.40;99.90;;;;;;5048742;28;20024;-65
2022/10/07 06:28:47;;;;;;;13.00;7.22;;;12.50;99.90;;;;;;5049299;28;20041;-65
2022/10/07 06:31:15;;;;;;;15.85;8.10;;;12.50;99.90;;;;;;5048822;28;20025;-66
2022/10/07 06:33:41;;;;;;;12.50;6.38;;;12.60;99.90;;;;;;5049414;28;20098;-67
2022/10/07 06:36:11;;;;;;;11.98;6.57;;;12.70;99.90;;;;;;5048838;28;20025;-67
2022/10/07 06:38:42;;;;;;;11.68;6.07;;;12.70;99.90;;;;;;5047948;28;20029;-65
2022/10/07 06:41:07;;;;;;;;;;;12.80;99.90;;;;;;5049026;28;20021;-65
2022/10/07 06:43:33;;;;;;;16.20;6.35;;;12.80;99.90;;;;;;5049671;28;20023;-65
2022/10/07 06:46:01;;;;;;;13.90;6.38;;;12.90;99.90;;;;;;5046874;28;20454;-64
2022/10/07 06:48:28;;;;;;;9.40;6.15;;;12.90;99.90;;;;;;5048879;28;20432;-67
2022/10/07 06:50:57;;;;;;;11.25;6.55;;;12.90;99.90;;;;;;5048780;28;20044;-67
2022/10/07 06:53:24;;;;;;;13.63;6.72;;;13.00;99.90;;;;;;5047768;28;20033;-65
2022/10/07 06:55:52;;;;;;;18.98;7.38;;;13.00;99.90;;;;;;5048606;28;20033;-66
2022/10/07 06:58:17;;;;;;;13.68;6.95;;;13.10;99.90;;;;;;5048265;28;20027;-66
2022/10/07 07:00:48;;;;;;;14.55;6.97;;;13.10;99.90;;;;;;5049165;28;20037;-65
2022/10/07 07:03:14;;;;;;;16.25;6.97;;;13.20;99.90;;;;;;5052459;28;20082;-64
2022/10/07 07:05:41;;;;;;;14.15;7.50;;;13.30;99.90;;;;;;5053226;28;20076;-64
2022/10/07 07:08:07;;;;;;;11.60;6.60;;;13.50;99.90;;;;;;5052345;28;20060;-64
2022/10/07 07:10:41;;;;;;;16.60;7.65;;;13.50;99.90;;;;;;5053119;28;20039;-65
2022/10/07 07:13:08;;;;;;;15.55;7.60;;;13.60;99.90;;;;;;5052439;28;20476;-65
2022/10/07 07:15:34;;;;;;;12.93;7.07;;;13.80;99.90;;;;;;5052774;28;20037;-65
2022/10/07 07:18:01;;;;;;;13.10;6.57;;;13.90;99.90;;;;;;5051017;28;20034;-69
2022/10/07 07:20:34;;;;;;;14.63;6.22;;;13.90;99.90;;;;;;5052483;28;20052;-65
2022/10/07 07:23:00;;;;;;;12.77;7.03;;;14.00;99.90;;;;;;5052357;28;20029;-68
2022/10/07 07:25:27;;;;;;;15.10;6.75;;;14.10;99.90;;;;;;5052727;28;20465;-66
2022/10/07 07:27:54;;;;;;;18.00;7.28;;;14.20;99.90;;;;;;5052647;28;20033;-66
2022/10/07 07:30:22;;;;;;;12.98;7.22;;;14.10;99.90;;;;;;5051891;28;20713;-65
2022/10/07 07:32:49;;;;;;;23.92;7.70;;;14.00;99.90;;;;;;5052639;28;20083;-66
2022/10/07 07:35:15;;;;;;;10.57;7.03;;;14.00;99.90;;;;;;5051075;28;20497;-65
2022/10/07 07:37:40;;;;;;;19.08;7.55;;;14.00;99.90;;;;;;5051942;28;20131;-63
2022/10/07 07:40:06;;;;;;;15.57;7.78;;;14.20;99.90;;;;;;5051781;28;20108;-66
2022/10/07 07:42:32;;;;;;;13.73;7.05;;;14.40;99.90;;;;;;5052496;28;20059;-63
2022/10/07 07:44:58;;;;;;;15.40;7.53;;;14.50;99.90;;;;;;5052238;28;20037;-69
2022/10/07 07:47:25;;;;;;;11.77;6.43;;;14.60;99.90;;;;;;5051684;28;20033;-65
2022/10/07 07:49:51;;;;;;;10.25;6.38;;;14.80;99.90;;;;;;5052007;28;20037;-69
2022/10/07 07:52:17;;;;;;;13.07;6.72;;;14.90;99.90;;;;;;5051553;28;20593;-64
2022/10/07 07:54:42;;;;;;;13.88;5.90;;;15.10;99.90;;;;;;5052055;28;20037;-66
2022/10/07 07:57:09;;;;;;;14.25;5.28;;;15.20;99.90;;;;;;5051453;28;20060;-65
2022/10/07 07:59:36;;;;;;;9.85;4.55;;;15.40;99.90;;;;;;5052205;28;20440;-63
2022/10/07 08:02:02;;;;;;;10.80;4.28;;;15.60;99.90;;;;;;5051571;28;20108;-70
2022/10/07 08:04:28;;;;;;;12.90;3.95;;;15.80;99.90;;;;;;5051887;28;20106;-66
2022/10/07 08:06:54;;;;;;;10.80;3.95;;;15.90;99.90;;;;;;5051537;28;20132;-65
2022/10/07 08:09:20;;;;;;;10.98;4.40;;;16.00;99.90;;;;;;5050796;28;20037;-63
2022/10/07 08:11:45;;;;;;;13.15;4.30;;;16.10;99.90;;;;;;5051710;28;20043;-64
2022/10/07 08:14:15;;;;;;;7.68;3.92;;;16.30;99.90;;;;;;5050312;28;20054;-66
2022/10/07 08:16:44;;;;;;;11.02;4.15;;;16.40;99.90;;;;;;5051848;28;20055;-64
2022/10/07 08:19:14;;;;;;;7.88;3.38;;;16.50;99.90;;;;;;5050875;28;20025;-63
2022/10/07 08:21:40;;;;;;;12.15;3.70;;;16.60;99.90;;;;;;5051749;28;20049;-65
2022/10/07 08:24:08;;;;;;;11.00;4.00;;;16.60;99.90;;;;;;5050828;28;20032;-64
2022/10/07 08:26:36;;;;;;;7.65;3.50;;;16.60;99.90;;;;;;5051632;28;20121;-65
2022/10/07 08:29:02;;;;;;;9.02;3.15;;;16.60;99.90;;;;;;5051251;28;20037;-69
2022/10/07 08:31:28;;;;;;;9.73;3.40;;;16.70;99.90;;;;;;5050970;28;20055;-66
2022/10/07 08:34:00;;;;;;;8.40;3.35;;;16.70;99.90;;;;;;5051400;28;20470;-65
2022/10/07 08:36:27;;;;;;;8.68;3.47;;;16.90;99.90;;;;;;5050875;28;20033;-65
2022/10/07 08:38:53;;;;;;;8.93;3.15;;;17.10;99.90;;;;;;5051575;28;20051;-64
2022/10/07 08:41:49;;;;;;;8.05;3.40;;;17.20;99.90;;;;;;5049419;28;20492;-66
2022/10/07 08:44:20;;;;;;;8.88;3.15;;;17.30;99.90;;;;;;5050722;28;20095;-64
2022/10/07 08:47:05;;;;;;;7.05;3.28;;;17.40;99.90;;;;;;5049782;28;20115;-66
2022/10/07 08:50:01;;;;;;;5.05;3.00;;;17.50;99.90;;;;;;5051326;28;20029;-64
2022/10/07 08:52:36;;;;;;;10.80;3.25;;;17.60;99.90;;;;;;5050609;28;20058;-63
2022/10/07 08:55:08;;;;;;;5.80;2.75;;;17.70;99.90;;;;;;5051183;28;20029;-68
2022/10/07 08:57:46;;;;;;;13.02;3.75;;;17.70;99.90;;;;;;5051071;28;20119;-63
2022/10/07 09:00:16;;;;;;;12.18;3.53;;;17.80;99.90;;;;;;5050470;28;20029;-64
2022/10/07 09:03:01;;;;;;;15.48;3.83;;;18.00;99.90;;;;;;5050110;28;20037;-64
2022/10/07 09:05:32;;;;;;;9.45;3.90;;;18.10;99.90;;;;;;5049918;28;20076;-65
2022/10/07 09:08:09;;;;;;;8.20;3.92;;;18.00;99.90;;;;;;5050918;28;20040;-67
2022/10/07 09:10:41;;;;;;;6.70;3.55;;;18.10;99.90;;;;;;5050649;28;20036;-63
2022/10/07 09:13:12;;;;;;;8.13;3.60;;;18.20;99.90;;;;;;5050256;28;20033;-69
2022/10/07 09:15:48;;;;;;;8.98;3.75;;;18.20;99.90;;;;;;5050842;28;20832;-64
2022/10/07 09:18:36;;;;;;;13.70;3.42;;;18.20;99.90;;;;;;5048096;28;20067;-66
2022/10/07 09:21:07;;;;;;;5.22;3.05;;;18.20;99.90;;;;;;5050680;28;20048;-64
2022/10/07 09:23:35;;;;;;;6.75;3.63;;;18.20;99.90;;;;;;5050670;28;20037;-65
2022/10/07 09:26:04;;;;;;;13.07;3.63;;;18.30;99.90;;;;;;5049987;28;20041;-66
2022/10/07 09:28:32;;;;;;;8.32;3.85;;;18.40;99.90;;;;;;5049924;28;20547;-63
2022/10/07 09:31:01;;;;;;;8.05;3.88;;;18.60;99.90;;;;;;5050442;28;20045;-66
2022/10/07 09:33:30;;;;;;;8.40;3.55;;;18.60;99.90;;;;;;5049239;28;20025;-63
2022/10/07 09:36:08;;;;;;;9.20;3.70;;;18.70;99.90;;;;;;5049846;28;20033;-65
2022/10/07 09:38:39;;;;;;;7.10;3.30;;;18.80;99.90;;;;;;5050459;28;20052;-64
2022/10/07 09:41:16;;;;;;;12.45;3.60;;;18.80;99.90;;;;;;5050246;28;20528;-70
2022/10/07 09:44:07;;;;;;;13.07;3.92;;;18.90;99.90;;;;;;5050377;28;20365;-64
2022/10/07 09:46:46;;;;;;;9.25;2.90;;;18.90;99.90;;;;;;5049680;28;20033;-65
2022/10/07 09:49:27;;;;;;;7.47;3.65;;;18.80;99.90;;;;;;5049291;28;20146;-66
2022/10/07 09:52:15;;;;;;;9.57;3.50;;;18.90;99.90;;;;;;5050271;28;20059;-65
2022/10/07 09:54:46;;;;;;;8.50;3.20;;;19.10;99.90;;;;;;5049812;28;20029;-67
2022/10/07 09:57:26;;;;;;;9.07;3.63;;;19.00;99.90;;;;;;5049239;28;20037;-65
2022/10/07 10:00:12;;;;;;;14.38;3.75;;;19.10;99.90;;;;;;5049943;28;20067;-64
2022/10/07 10:02:41;;;;;;;9.02;3.10;;;19.20;99.90;;;;;;5049663;28;20036;-65
2022/10/07 10:05:56;;;;;;;10.55;3.63;;;19.40;99.90;;;;;;5047658;28;20032;-68
2022/10/07 10:08:37;;;;;;;8.93;3.65;;;19.40;99.90;;;;;;5039096;28;20040;-66
2022/10/07 10:11:20;;;;;;;10.85;3.38;;;19.60;99.90;;;;;;5049891;28;20033;-64
2022/10/07 10:13:49;;;;;;;11.13;3.28;;;19.40;99.90;;;;;;5049470;28;20466;-65
2022/10/07 10:16:39;;;;;;;9.73;3.45;;;19.30;99.90;;;;;;5049051;28;20033;-66
2022/10/07 10:19:26;;;;;;;12.25;3.92;;;19.20;99.90;;;;;;5049677;28;20094;-67
2022/10/07 10:21:54;;;;;;;7.15;3.40;;;19.10;99.90;;;;;;5049505;28;20071;-64
2022/10/07 10:26:24;;;;;;;5.63;3.20;;;19.00;99.90;;;;;;5048851;28;20362;-64
2022/10/07 10:27:56;;;;;;;14.48;3.60;;;19.00;99.90;;;;;;5049096;28;20130;-70
2022/10/07 10:30:23;;;;;;;9.93;3.33;;;18.90;99.90;;;;;;5046330;28;20045;-66
2022/10/07 10:32:58;;;;;;;14.10;3.45;;;18.80;99.90;;;;;;5049312;28;20112;-66
2022/10/07 10:35:29;;;;;;;11.13;3.45;;;18.80;99.90;;;;;;5048285;28;20116;-64
2022/10/07 10:38:09;;;;;;;16.30;3.67;;;19.20;99.90;;;;;;5049194;28;20402;-64
2022/10/07 10:40:44;;;;;;;11.40;3.70;;;19.80;99.90;;;;;;5049205;28;20021;-64
2022/10/07 10:43:21;;;;;;;10.48;3.78;;;19.50;99.90;;;;;;5047551;28;20029;-69
2022/10/07 10:46:07;;;;;;;8.93;3.72;;;19.50;99.90;;;;;;5049306;28;20055;-64
2022/10/07 10:48:52;;;;;;;6.70;3.40;;;19.40;99.90;;;;;;5048679;28;20680;-65
2022/10/07 10:51:39;;;;;;;11.18;3.85;;;19.70;99.90;;;;;;5048441;28;20091;-68
2022/10/07 10:54:29;;;;;;;12.23;3.80;;;19.50;99.90;;;;;;5049077;28;20111;-65
2022/10/07 10:57:13;;;;;;;8.57;4.10;;;19.20;99.90;;;;;;5049120;28;20029;-65
2022/10/07 11:00:06;;;;;;;7.32;3.35;;;19.00;99.90;;;;;;5049739;28;20032;-66
2022/10/07 11:02:39;;;;;;;6.53;3.40;;;19.50;99.90;;;;;;5045964;28;20060;-65
2022/10/07 11:05:11;;;;;;;13.90;3.70;;;19.80;99.90;;;;;;5049195;28;20021;-64
2022/10/07 11:07:46;;;;;;;7.20;3.15;;;19.90;99.90;;;;;;5048622;28;20110;-64
2022/10/07 11:10:11;;;;;;;8.25;3.40;;;20.40;99.90;;;;;;5048992;28;20107;-70
2022/10/07 11:12:45;;;;;;;6.72;3.28;;;20.50;99.90;;;;;;5048877;28;20104;-67
2022/10/07 11:15:33;;;;;;;11.77;3.22;;;20.40;99.90;;;;;;5049044;28;20040;-70
2022/10/07 11:18:10;;;;;;;6.05;3.33;;;20.10;99.90;;;;;;5045818;28;20044;-64
2022/10/07 11:20:46;;;;;;;9.13;3.40;;;20.00;99.90;;;;;;5048121;28;20095;-66
2022/10/07 11:23:48;;;;;;;8.38;3.60;;;20.30;99.90;;;;;;5048676;28;20471;-69
2022/10/07 11:26:32;;;;;;;6.72;3.40;;;20.30;99.90;;;;;;5023892;28;20213;-69
2022/10/07 11:29:08;;;;;;;10.90;3.55;;;20.60;99.90;;;;;;5029079;28;20115;-65
2022/10/07 11:31:38;;;;;;;8.13;3.90;;;21.10;99.90;;;;;;5028427;28;20034;-65
2022/10/07 11:34:39;;;;;;;6.18;3.33;;;21.00;99.90;;;;;;5043646;28;20112;-64
2022/10/07 11:37:18;;;;;;;10.48;3.13;;;20.50;99.90;;;;;;5043792;28;20107;-64
2022/10/07 11:39:44;;;;;;;9.55;3.53;;;20.70;99.90;;;;;;5049286;28;20039;-65
2022/10/07 11:42:18;;;;;;;7.22;3.08;;;20.70;99.90;;;;;;5049009;28;20033;-63
2022/10/07 11:44:50;;;;;;;10.52;3.50;;;20.50;99.90;;;;;;5049247;28;20096;-66
2022/10/07 11:47:20;;;;;;;6.57;3.47;;;20.70;99.90;;;;;;5049121;28;20036;-69
2022/10/07 11:49:59;;;;;;;11.38;3.25;;;21.00;99.90;;;;;;5052288;28;20033;-63
2022/10/07 11:52:27;;;;;;;8.07;3.45;;;20.80;99.90;;;;;;5051845;28;20569;-65
2022/10/07 11:55:10;;;;;;;7.40;3.60;;;20.80;99.90;;;;;;5051070;28;20036;-64
2022/10/07 11:57:42;;;;;;;8.38;4.25;;;20.80;99.90;;;;;;5051694;28;20044;-66
2022/10/07 12:00:21;;;;;;;6.13;3.70;;;21.10;99.90;;;;;;5052329;28;20060;-66
2022/10/07 12:02:47;;;;;;;8.98;3.70;;;21.40;99.90;;;;;;5052431;28;20453;-65
2022/10/07 12:05:32;;;;;;;8.98;3.60;;;21.70;99.90;;;;;;5052021;28;20040;-70
2022/10/07 12:08:22;;;;;;;5.05;3.22;;;22.00;99.90;;;;;;5052135;28;20033;-66
2022/10/07 12:10:52;;;;;;;12.50;4.43;;;21.90;99.90;;;;;;5051718;28;20564;-66
2022/10/07 12:13:19;;;;;;;12.73;3.53;;;21.80;99.90;;;;;;5051388;28;20271;-68
2022/10/07 12:15:50;;;;;;;13.65;3.78;;;21.60;99.90;;;;;;5051538;28;20033;-65
2022/10/07 12:18:18;;;;;;;9.43;3.80;;;21.50;99.90;;;;;;5051362;28;20489;-68
2022/10/07 12:20:50;;;;;;;9.40;3.85;;;21.20;99.90;;;;;;5051448;28;20060;-64
2022/10/07 12:25:53;;;;;;;8.02;3.78;;;20.70;99.90;;;;;;5051882;28;20040;-64
2022/10/07 12:28:30;;;;;;;9.57;4.20;;;20.60;99.90;;;;;;5050866;28;20084;-69
2022/10/07 12:31:17;;;;;;;9.05;3.88;;;20.30;99.90;;;;;;5051767;28;20079;-64
2022/10/07 12:33:43;;;;;;;13.10;4.28;;;20.10;99.90;;;;;;5051043;28;20059;-65
2022/10/07 12:36:18;;;;;;;13.05;4.85;;;20.00;99.90;;;;;;5051607;28;20029;-66
2022/10/07 12:39:10;;;;;;;12.15;4.60;;;20.20;99.90;;;;;;5051264;28;20500;-65
2022/10/07 12:41:38;;;;;;;7.68;3.97;;;20.50;99.90;;;;;;5041580;28;20037;-66
2022/10/07 12:44:15;;;;;;;8.52;4.30;;;20.20;99.90;;;;;;5051197;28;20037;-65
2022/10/07 12:47:12;;;;;;;12.00;4.68;;;20.20;99.90;;;;;;5029580;28;20587;-68
2022/10/07 12:49:44;;;;;;;6.40;3.97;;;20.00;99.90;;;;;;5030839;28;20034;-66
2022/10/07 12:52:14;;;;;;;7.93;4.72;;;19.90;99.90;;;;;;5031304;28;20481;-66
2022/10/07 12:54:52;;;;;;;10.32;4.10;;;19.80;99.90;;;;;;5031474;28;20033;-64
2022/10/07 12:57:22;;;;;;;9.18;4.65;;;19.80;99.90;;;;;;5050808;28;20048;-69
2022/10/07 13:00:18;;;;;;;7.82;4.43;;;19.80;99.90;;;;;;5050745;28;20025;-67
2022/10/07 13:03:22;;;;;;;15.32;5.00;;;20.00;99.90;;;;;;5050468;28;20049;-63
2022/10/07 13:06:02;;;;;;;7.88;4.00;;;20.30;99.90;;;;;;5051173;28;20108;-66
2022/10/07 13:09:05;;;;;;;9.10;4.72;;;20.40;99.90;;;;;;5050270;28;20059;-65
2022/10/07 13:12:16;;;;;;;21.73;4.82;;;20.40;99.90;;;;;;5050234;28;20036;-65
2022/10/07 13:14:52;;;;;;;9.82;4.72;;;20.40;99.90;;;;;;5050487;28;20106;-66